sensor_id;sensor_type;location;lat;lon;timestamp;P1;durP1;ratioP1;P2;durP2;ratioP2
5173;SDS011;2606;50.934;6.934;2023-03-20T00:00:49;24.77;;;13.87;;
5173;SDS011;2606;50.934;6.934;2023-03-20T00:03:15;26.13;;;14.13;;
5173;SDS011;2606;50.934;6.934;2023-03-20T00:05:42;29.53;;;12.83;;
5173;SDS011;2606;50.934;6.934;2023-03-20T00:08:07;24.53;;;12.47;;
5173;SDS011;2606;50.934;6.934;2023-03-20T00:10:40;26.20;;;12.87;;
5173;SDS011;2606;50.934;6.934;2023-03-20T00:13:10;25.47;;;13.80;;
5173;SDS011;2606;50.934;6.934;2023-03-20T00:15:47;25.27;;;12.37;;
5173;SDS011;2606;50.934;6.934;2023-03-20T00:18:17;22.87;;;12.37;;
5173;SDS011;2606;50.934;6.934;2023-03-20T00:20:45;25.60;;;11.27;;
5173;SDS011;2606;50.934;6.934;2023-03-20T00:23:12;26.07;;;11.97;;
5173;SDS011;2606;50.934;6.934;2023-03-20T00:25:38;29.00;;;12.80;;
5173;SDS011;2606;50.934;6.934;2023-03-20T00:31:05;23.07;;;11.80;;
5173;SDS011;2606;50.934;6.934;2023-03-20T00:33:54;22.57;;;12.27;;
5173;SDS011;2606;50.934;6.934;2023-03-20T00:36:24;21.90;;;11.97;;
5173;SDS011;2606;50.934;6.934;2023-03-20T00:38:51;26.57;;;13.43;;
5173;SDS011;2606;50.934;6.934;2023-03-20T00:46:58;25.57;;;12.90;;
5173;SDS011;2606;50.934;6.934;2023-03-20T00:49:36;24.60;;;12.53;;
5173;SDS011;2606;50.934;6.934;2023-03-20T00:52:03;23.40;;;12.43;;
5173;SDS011;2606;50.934;6.934;2023-03-20T00:54:29;22.87;;;11.80;;
5173;SDS011;2606;50.934;6.934;2023-03-20T00:56:58;32.50;;;13.77;;
5173;SDS011;2606;50.934;6.934;2023-03-20T00:59:27;27.30;;;13.90;;
5173;SDS011;2606;50.934;6.934;2023-03-20T01:01:57;25.30;;;13.10;;
5173;SDS011;2606;50.934;6.934;2023-03-20T01:04:24;29.40;;;13.97;;
5173;SDS011;2606;50.934;6.934;2023-03-20T01:06:58;31.60;;;13.90;;
5173;SDS011;2606;50.934;6.934;2023-03-20T01:09:24;24.80;;;12.73;;
5173;SDS011;2606;50.934;6.934;2023-03-20T01:11:50;26.73;;;13.03;;
5173;SDS011;2606;50.934;6.934;2023-03-20T01:14:15;25.40;;;14.00;;
5173;SDS011;2606;50.934;6.934;2023-03-20T01:16:42;30.07;;;14.80;;
5173;SDS011;2606;50.934;6.934;2023-03-20T01:19:11;27.07;;;13.03;;
5173;SDS011;2606;50.934;6.934;2023-03-20T01:21:38;24.60;;;12.20;;
5173;SDS011;2606;50.934;6.934;2023-03-20T01:24:04;33.13;;;15.37;;
5173;SDS011;2606;50.934;6.934;2023-03-20T01:26:34;26.47;;;13.37;;
5173;SDS011;2606;50.934;6.934;2023-03-20T01:29:02;27.67;;;14.40;;
5173;SDS011;2606;50.934;6.934;2023-03-20T01:31:29;26.10;;;12.87;;
5173;SDS011;2606;50.934;6.934;2023-03-20T01:33:54;29.70;;;13.77;;
5173;SDS011;2606;50.934;6.934;2023-03-20T01:36:21;25.57;;;12.97;;
5173;SDS011;2606;50.934;6.934;2023-03-20T01:38:53;26.07;;;13.27;;
5173;SDS011;2606;50.934;6.934;2023-03-20T01:41:20;26.87;;;14.07;;
5173;SDS011;2606;50.934;6.934;2023-03-20T01:43:48;26.50;;;12.90;;
5173;SDS011;2606;50.934;6.934;2023-03-20T01:46:15;28.07;;;12.57;;
5173;SDS011;2606;50.934;6.934;2023-03-20T01:51:32;27.77;;;12.40;;
5173;SDS011;2606;50.934;6.934;2023-03-20T01:56:25;24.00;;;12.03;;
5173;SDS011;2606;50.934;6.934;2023-03-20T01:58:59;25.03;;;11.30;;
5173;SDS011;2606;50.934;6.934;2023-03-20T02:01:29;22.30;;;12.63;;
5173;SDS011;2606;50.934;6.934;2023-03-20T02:03:55;22.10;;;12.73;;
5173;SDS011;2606;50.934;6.934;2023-03-20T02:06:21;21.10;;;11.83;;
5173;SDS011;2606;50.934;6.934;2023-03-20T02:08:49;21.83;;;10.53;;
5173;SDS011;2606;50.934;6.934;2023-03-20T02:11:17;26.00;;;11.70;;
5173;SDS011;2606;50.934;6.934;2023-03-20T02:13:46;23.17;;;11.13;;
5173;SDS011;2606;50.934;6.934;2023-03-20T02:16:14;22.00;;;10.63;;
5173;SDS011;2606;50.934;6.934;2023-03-20T02:18:41;23.20;;;12.17;;
5173;SDS011;2606;50.934;6.934;2023-03-20T02:37:37;23.53;;;11.40;;
5173;SDS011;2606;50.934;6.934;2023-03-20T02:40:16;23.93;;;10.50;;
5173;SDS011;2606;50.934;6.934;2023-03-20T02:43:08;22.27;;;10.03;;
5173;SDS011;2606;50.934;6.934;2023-03-20T02:48:53;19.90;;;9.93;;
5173;SDS011;2606;50.934;6.934;2023-03-20T02:51:46;21.17;;;10.37;;
5173;SDS011;2606;50.934;6.934;2023-03-20T02:59:51;21.77;;;11.98;;
5173;SDS011;2606;50.934;6.934;2023-03-20T03:02:24;24.87;;;10.80;;
5173;SDS011;2606;50.934;6.934;2023-03-20T03:04:58;19.90;;;10.10;;
5173;SDS011;2606;50.934;6.934;2023-03-20T03:07:29;24.57;;;11.13;;
5173;SDS011;2606;50.934;6.934;2023-03-20T03:10:19;26.60;;;11.23;;
5173;SDS011;2606;50.934;6.934;2023-03-20T03:13:04;24.93;;;10.70;;
5173;SDS011;2606;50.934;6.934;2023-03-20T03:15:39;27.63;;;10.90;;
5173;SDS011;2606;50.934;6.934;2023-03-20T03:18:12;23.40;;;10.73;;
5173;SDS011;2606;50.934;6.934;2023-03-20T03:20:41;27.50;;;10.97;;
5173;SDS011;2606;50.934;6.934;2023-03-20T03:23:14;25.77;;;11.67;;
5173;SDS011;2606;50.934;6.934;2023-03-20T03:25:51;22.30;;;10.83;;
5173;SDS011;2606;50.934;6.934;2023-03-20T03:31:03;23.83;;;11.10;;
5173;SDS011;2606;50.934;6.934;2023-03-20T03:33:31;28.97;;;12.37;;
5173;SDS011;2606;50.934;6.934;2023-03-20T03:41:17;22.47;;;11.57;;
5173;SDS011;2606;50.934;6.934;2023-03-20T03:46:39;21.60;;;9.73;;
5173;SDS011;2606;50.934;6.934;2023-03-20T03:49:09;24.87;;;12.80;;
5173;SDS011;2606;50.934;6.934;2023-03-20T03:51:40;19.27;;;10.77;;
5173;SDS011;2606;50.934;6.934;2023-03-20T03:54:13;20.37;;;10.70;;
5173;SDS011;2606;50.934;6.934;2023-03-20T03:56:46;23.43;;;11.10;;
5173;SDS011;2606;50.934;6.934;2023-03-20T03:59:17;23.47;;;10.80;;
5173;SDS011;2606;50.934;6.934;2023-03-20T04:01:49;26.23;;;11.43;;
5173;SDS011;2606;50.934;6.934;2023-03-20T04:04:16;20.50;;;10.43;;
5173;SDS011;2606;50.934;6.934;2023-03-20T04:06:43;20.63;;;11.10;;
5173;SDS011;2606;50.934;6.934;2023-03-20T04:09:09;21.47;;;10.60;;
5173;SDS011;2606;50.934;6.934;2023-03-20T04:11:34;21.93;;;10.90;;
5173;SDS011;2606;50.934;6.934;2023-03-20T04:14:00;20.47;;;10.80;;
5173;SDS011;2606;50.934;6.934;2023-03-20T04:16:26;24.37;;;11.23;;
5173;SDS011;2606;50.934;6.934;2023-03-20T04:18:52;17.90;;;9.20;;
5173;SDS011;2606;50.934;6.934;2023-03-20T04:21:18;18.60;;;9.37;;
5173;SDS011;2606;50.934;6.934;2023-03-20T04:23:44;21.90;;;9.60;;
5173;SDS011;2606;50.934;6.934;2023-03-20T04:26:10;18.73;;;8.20;;
5173;SDS011;2606;50.934;6.934;2023-03-20T04:28:36;17.50;;;9.20;;
5173;SDS011;2606;50.934;6.934;2023-03-20T04:31:04;18.50;;;9.40;;
5173;SDS011;2606;50.934;6.934;2023-03-20T04:33:30;18.57;;;9.40;;
5173;SDS011;2606;50.934;6.934;2023-03-20T04:35:56;16.30;;;7.83;;
5173;SDS011;2606;50.934;6.934;2023-03-20T04:38:21;18.60;;;8.70;;
5173;SDS011;2606;50.934;6.934;2023-03-20T04:40:48;26.13;;;8.33;;
5173;SDS011;2606;50.934;6.934;2023-03-20T04:43:14;18.27;;;8.40;;
5173;SDS011;2606;50.934;6.934;2023-03-20T04:45:40;18.47;;;8.77;;
5173;SDS011;2606;50.934;6.934;2023-03-20T04:48:06;17.27;;;8.30;;
5173;SDS011;2606;50.934;6.934;2023-03-20T04:50:32;15.20;;;8.20;;
5173;SDS011;2606;50.934;6.934;2023-03-20T04:52:57;14.23;;;7.27;;
5173;SDS011;2606;50.934;6.934;2023-03-20T04:55:23;16.63;;;7.60;;
5173;SDS011;2606;50.934;6.934;2023-03-20T04:57:49;25.20;;;9.50;;
5173;SDS011;2606;50.934;6.934;2023-03-20T05:00:15;14.43;;;8.17;;
5173;SDS011;2606;50.934;6.934;2023-03-20T05:02:41;20.83;;;8.00;;
5173;SDS011;2606;50.934;6.934;2023-03-20T05:05:07;15.97;;;7.93;;
5173;SDS011;2606;50.934;6.934;2023-03-20T05:07:33;26.47;;;8.17;;
5173;SDS011;2606;50.934;6.934;2023-03-20T05:09:59;19.90;;;8.43;;
5173;SDS011;2606;50.934;6.934;2023-03-20T05:12:25;15.50;;;7.60;;
5173;SDS011;2606;50.934;6.934;2023-03-20T05:14:51;13.37;;;7.27;;
5173;SDS011;2606;50.934;6.934;2023-03-20T05:17:18;19.20;;;7.43;;
5173;SDS011;2606;50.934;6.934;2023-03-20T05:19:45;16.23;;;7.77;;
5173;SDS011;2606;50.934;6.934;2023-03-20T05:22:11;18.47;;;8.87;;
5173;SDS011;2606;50.934;6.934;2023-03-20T05:24:37;19.20;;;8.57;;
5173;SDS011;2606;50.934;6.934;2023-03-20T05:27:02;19.50;;;8.63;;
5173;SDS011;2606;50.934;6.934;2023-03-20T05:29:28;16.20;;;8.10;;
5173;SDS011;2606;50.934;6.934;2023-03-20T05:31:54;15.50;;;7.40;;
5173;SDS011;2606;50.934;6.934;2023-03-20T05:34:19;13.23;;;7.20;;
5173;SDS011;2606;50.934;6.934;2023-03-20T05:36:45;16.05;;;8.27;;
5173;SDS011;2606;50.934;6.934;2023-03-20T05:39:11;13.60;;;7.83;;
5173;SDS011;2606;50.934;6.934;2023-03-20T05:41:37;15.10;;;8.17;;
5173;SDS011;2606;50.934;6.934;2023-03-20T05:44:02;13.00;;;7.20;;
5173;SDS011;2606;50.934;6.934;2023-03-20T05:46:28;14.20;;;7.13;;
5173;SDS011;2606;50.934;6.934;2023-03-20T05:48:53;16.10;;;7.43;;
5173;SDS011;2606;50.934;6.934;2023-03-20T05:51:19;18.93;;;8.90;;
5173;SDS011;2606;50.934;6.934;2023-03-20T05:53:45;15.03;;;7.30;;
5173;SDS011;2606;50.934;6.934;2023-03-20T05:56:11;17.93;;;7.30;;
5173;SDS011;2606;50.934;6.934;2023-03-20T05:58:36;14.80;;;7.90;;
5173;SDS011;2606;50.934;6.934;2023-03-20T06:01:02;20.40;;;7.90;;
5173;SDS011;2606;50.934;6.934;2023-03-20T06:03:28;18.63;;;8.00;;
5173;SDS011;2606;50.934;6.934;2023-03-20T06:05:54;16.90;;;7.93;;
5173;SDS011;2606;50.934;6.934;2023-03-20T06:08:19;19.20;;;8.90;;
5173;SDS011;2606;50.934;6.934;2023-03-20T06:10:45;21.33;;;8.90;;
5173;SDS011;2606;50.934;6.934;2023-03-20T06:13:10;25.17;;;8.47;;
5173;SDS011;2606;50.934;6.934;2023-03-20T06:15:36;23.53;;;9.00;;
5173;SDS011;2606;50.934;6.934;2023-03-20T06:18:02;17.93;;;7.90;;
5173;SDS011;2606;50.934;6.934;2023-03-20T06:20:27;23.97;;;8.50;;
5173;SDS011;2606;50.934;6.934;2023-03-20T06:22:53;18.60;;;8.27;;
5173;SDS011;2606;50.934;6.934;2023-03-20T06:25:19;17.97;;;9.60;;
5173;SDS011;2606;50.934;6.934;2023-03-20T06:27:45;25.20;;;9.57;;
5173;SDS011;2606;50.934;6.934;2023-03-20T06:30:12;18.73;;;8.70;;
5173;SDS011;2606;50.934;6.934;2023-03-20T06:32:38;20.77;;;9.33;;
5173;SDS011;2606;50.934;6.934;2023-03-20T06:35:04;19.20;;;8.53;;
5173;SDS011;2606;50.934;6.934;2023-03-20T06:37:30;19.37;;;9.43;;
5173;SDS011;2606;50.934;6.934;2023-03-20T06:39:56;18.17;;;8.73;;
5173;SDS011;2606;50.934;6.934;2023-03-20T06:42:22;16.73;;;9.07;;
5173;SDS011;2606;50.934;6.934;2023-03-20T06:44:48;22.00;;;11.13;;
5173;SDS011;2606;50.934;6.934;2023-03-20T06:47:13;21.77;;;9.30;;
5173;SDS011;2606;50.934;6.934;2023-03-20T06:49:39;17.53;;;9.27;;
5173;SDS011;2606;50.934;6.934;2023-03-20T06:52:05;24.67;;;10.03;;
5173;SDS011;2606;50.934;6.934;2023-03-20T06:54:31;23.20;;;9.97;;
5173;SDS011;2606;50.934;6.934;2023-03-20T06:56:57;19.67;;;10.17;;
5173;SDS011;2606;50.934;6.934;2023-03-20T06:59:22;20.10;;;9.27;;
5173;SDS011;2606;50.934;6.934;2023-03-20T07:01:48;19.13;;;9.30;;
5173;SDS011;2606;50.934;6.934;2023-03-20T07:04:14;18.83;;;8.30;;
5173;SDS011;2606;50.934;6.934;2023-03-20T07:06:41;18.50;;;9.17;;
5173;SDS011;2606;50.934;6.934;2023-03-20T07:09:07;15.60;;;8.30;;
5173;SDS011;2606;50.934;6.934;2023-03-20T07:11:32;19.67;;;8.53;;
5173;SDS011;2606;50.934;6.934;2023-03-20T07:13:58;16.63;;;9.07;;
5173;SDS011;2606;50.934;6.934;2023-03-20T07:16:25;18.17;;;9.63;;
5173;SDS011;2606;50.934;6.934;2023-03-20T07:18:51;22.00;;;8.90;;
5173;SDS011;2606;50.934;6.934;2023-03-20T07:21:18;18.03;;;8.80;;
5173;SDS011;2606;50.934;6.934;2023-03-20T07:23:45;19.50;;;8.10;;
5173;SDS011;2606;50.934;6.934;2023-03-20T07:26:11;18.83;;;8.97;;
5173;SDS011;2606;50.934;6.934;2023-03-20T07:28:37;12.57;;;6.87;;
5173;SDS011;2606;50.934;6.934;2023-03-20T07:31:03;17.50;;;8.57;;
5173;SDS011;2606;50.934;6.934;2023-03-20T07:33:29;19.37;;;8.87;;
5173;SDS011;2606;50.934;6.934;2023-03-20T07:35:55;14.40;;;8.33;;
5173;SDS011;2606;50.934;6.934;2023-03-20T07:38:22;21.90;;;9.40;;
5173;SDS011;2606;50.934;6.934;2023-03-20T07:40:48;16.60;;;7.87;;
5173;SDS011;2606;50.934;6.934;2023-03-20T07:43:16;17.83;;;8.40;;
5173;SDS011;2606;50.934;6.934;2023-03-20T07:45:42;13.50;;;6.70;;
5173;SDS011;2606;50.934;6.934;2023-03-20T07:48:08;12.97;;;6.90;;
5173;SDS011;2606;50.934;6.934;2023-03-20T07:50:33;10.87;;;5.73;;
5173;SDS011;2606;50.934;6.934;2023-03-20T07:52:59;15.13;;;7.90;;
5173;SDS011;2606;50.934;6.934;2023-03-20T07:55:24;18.73;;;7.77;;
5173;SDS011;2606;50.934;6.934;2023-03-20T07:57:50;16.87;;;7.67;;
5173;SDS011;2606;50.934;6.934;2023-03-20T08:00:16;18.40;;;9.20;;
5173;SDS011;2606;50.934;6.934;2023-03-20T08:02:42;20.60;;;7.47;;
5173;SDS011;2606;50.934;6.934;2023-03-20T08:05:08;16.30;;;8.57;;
5173;SDS011;2606;50.934;6.934;2023-03-20T08:07:34;16.50;;;7.80;;
5173;SDS011;2606;50.934;6.934;2023-03-20T08:10:00;19.70;;;7.10;;
5173;SDS011;2606;50.934;6.934;2023-03-20T08:12:26;13.23;;;6.63;;
5173;SDS011;2606;50.934;6.934;2023-03-20T08:14:51;11.67;;;6.00;;
5173;SDS011;2606;50.934;6.934;2023-03-20T08:17:26;14.50;;;7.10;;
5173;SDS011;2606;50.934;6.934;2023-03-20T08:20:07;10.63;;;5.13;;
5173;SDS011;2606;50.934;6.934;2023-03-20T08:22:36;13.53;;;5.70;;
5173;SDS011;2606;50.934;6.934;2023-03-20T08:25:21;14.03;;;6.67;;
5173;SDS011;2606;50.934;6.934;2023-03-20T08:27:47;11.27;;;5.60;;
5173;SDS011;2606;50.934;6.934;2023-03-20T08:30:12;13.43;;;6.20;;
5173;SDS011;2606;50.934;6.934;2023-03-20T08:32:39;11.97;;;5.37;;
5173;SDS011;2606;50.934;6.934;2023-03-20T08:35:04;18.87;;;6.20;;
5173;SDS011;2606;50.934;6.934;2023-03-20T08:37:30;8.93;;;4.93;;
5173;SDS011;2606;50.934;6.934;2023-03-20T08:39:56;9.57;;;5.90;;
5173;SDS011;2606;50.934;6.934;2023-03-20T08:42:21;11.60;;;5.00;;
5173;SDS011;2606;50.934;6.934;2023-03-20T08:44:47;7.67;;;4.90;;
5173;SDS011;2606;50.934;6.934;2023-03-20T08:47:13;15.60;;;5.30;;
5173;SDS011;2606;50.934;6.934;2023-03-20T08:49:38;16.40;;;5.40;;
5173;SDS011;2606;50.934;6.934;2023-03-20T08:52:04;8.00;;;4.37;;
5173;SDS011;2606;50.934;6.934;2023-03-20T08:54:30;10.97;;;5.17;;
5173;SDS011;2606;50.934;6.934;2023-03-20T08:56:59;17.03;;;5.00;;
5173;SDS011;2606;50.934;6.934;2023-03-20T08:59:24;8.10;;;3.97;;
5173;SDS011;2606;50.934;6.934;2023-03-20T09:01:50;10.10;;;4.67;;
5173;SDS011;2606;50.934;6.934;2023-03-20T09:04:16;11.00;;;4.67;;
5173;SDS011;2606;50.934;6.934;2023-03-20T09:06:42;14.83;;;5.00;;
5173;SDS011;2606;50.934;6.934;2023-03-20T09:09:08;12.53;;;4.37;;
5173;SDS011;2606;50.934;6.934;2023-03-20T09:11:34;8.30;;;4.83;;
5173;SDS011;2606;50.934;6.934;2023-03-20T09:14:03;10.90;;;6.00;;
5173;SDS011;2606;50.934;6.934;2023-03-20T09:16:29;9.80;;;5.47;;
5173;SDS011;2606;50.934;6.934;2023-03-20T09:18:55;9.07;;;5.87;;
5173;SDS011;2606;50.934;6.934;2023-03-20T09:21:21;9.77;;;5.37;;
5173;SDS011;2606;50.934;6.934;2023-03-20T09:23:46;10.20;;;6.37;;
5173;SDS011;2606;50.934;6.934;2023-03-20T09:26:12;11.90;;;6.00;;
5173;SDS011;2606;50.934;6.934;2023-03-20T09:28:37;9.03;;;5.00;;
5173;SDS011;2606;50.934;6.934;2023-03-20T09:31:03;10.10;;;5.03;;
5173;SDS011;2606;50.934;6.934;2023-03-20T09:33:29;7.90;;;5.13;;
5173;SDS011;2606;50.934;6.934;2023-03-20T09:35:55;9.80;;;5.00;;
5173;SDS011;2606;50.934;6.934;2023-03-20T09:38:21;9.70;;;5.40;;
5173;SDS011;2606;50.934;6.934;2023-03-20T09:40:56;11.70;;;4.90;;
5173;SDS011;2606;50.934;6.934;2023-03-20T09:55:14;9.50;;;5.43;;
5173;SDS011;2606;50.934;6.934;2023-03-20T09:57:45;9.13;;;4.90;;
5173;SDS011;2606;50.934;6.934;2023-03-20T10:00:19;13.77;;;5.90;;
5173;SDS011;2606;50.934;6.934;2023-03-20T10:02:50;12.13;;;5.83;;
5173;SDS011;2606;50.934;6.934;2023-03-20T10:05:19;14.10;;;5.27;;
5173;SDS011;2606;50.934;6.934;2023-03-20T10:07:59;9.30;;;5.00;;
5173;SDS011;2606;50.934;6.934;2023-03-20T10:10:30;7.37;;;4.10;;
5173;SDS011;2606;50.934;6.934;2023-03-20T10:18:44;8.83;;;4.50;;
5173;SDS011;2606;50.934;6.934;2023-03-20T10:21:16;8.50;;;4.27;;
5173;SDS011;2606;50.934;6.934;2023-03-20T10:24:01;6.47;;;2.73;;
5173;SDS011;2606;50.934;6.934;2023-03-20T10:26:33;4.97;;;2.90;;
5173;SDS011;2606;50.934;6.934;2023-03-20T10:29:01;7.50;;;2.87;;
5173;SDS011;2606;50.934;6.934;2023-03-20T10:43:00;6.50;;;2.30;;
5173;SDS011;2606;50.934;6.934;2023-03-20T10:45:40;5.40;;;1.90;;
5173;SDS011;2606;50.934;6.934;2023-03-20T10:48:14;16.57;;;7.40;;
5173;SDS011;2606;50.934;6.934;2023-03-20T10:50:49;10.17;;;4.07;;
5173;SDS011;2606;50.934;6.934;2023-03-20T10:53:27;5.97;;;2.80;;
5173;SDS011;2606;50.934;6.934;2023-03-20T10:56:22;3.23;;;2.63;;
5173;SDS011;2606;50.934;6.934;2023-03-20T10:58:53;5.47;;;2.07;;
5173;SDS011;2606;50.934;6.934;2023-03-20T11:01:27;5.90;;;2.40;;
5173;SDS011;2606;50.934;6.934;2023-03-20T11:03:53;8.93;;;3.47;;
5173;SDS011;2606;50.934;6.934;2023-03-20T11:06:21;7.50;;;3.13;;
5173;SDS011;2606;50.934;6.934;2023-03-20T11:08:56;5.03;;;2.50;;
5173;SDS011;2606;50.934;6.934;2023-03-20T11:11:47;7.80;;;3.07;;
5173;SDS011;2606;50.934;6.934;2023-03-20T11:14:21;7.50;;;3.20;;
5173;SDS011;2606;50.934;6.934;2023-03-20T11:16:52;7.70;;;2.93;;
5173;SDS011;2606;50.934;6.934;2023-03-20T11:19:20;8.90;;;2.87;;
5173;SDS011;2606;50.934;6.934;2023-03-20T11:21:56;9.00;;;3.33;;
5173;SDS011;2606;50.934;6.934;2023-03-20T11:24:34;6.83;;;3.30;;
5173;SDS011;2606;50.934;6.934;2023-03-20T11:27:05;8.37;;;2.70;;
5173;SDS011;2606;50.934;6.934;2023-03-20T11:29:33;4.50;;;2.60;;
5173;SDS011;2606;50.934;6.934;2023-03-20T11:32:07;5.23;;;3.00;;
5173;SDS011;2606;50.934;6.934;2023-03-20T11:37:50;7.53;;;2.27;;
5173;SDS011;2606;50.934;6.934;2023-03-20T11:40:20;9.23;;;2.63;;
5173;SDS011;2606;50.934;6.934;2023-03-20T11:45:36;6.13;;;2.43;;
5173;SDS011;2606;50.934;6.934;2023-03-20T11:48:07;8.47;;;2.97;;
5173;SDS011;2606;50.934;6.934;2023-03-20T11:50:43;4.17;;;2.40;;
5173;SDS011;2606;50.934;6.934;2023-03-20T11:53:20;13.57;;;2.67;;
5173;SDS011;2606;50.934;6.934;2023-03-20T11:58:35;7.60;;;2.50;;
5173;SDS011;2606;50.934;6.934;2023-03-20T12:01:10;8.63;;;2.80;;
5173;SDS011;2606;50.934;6.934;2023-03-20T12:03:41;7.40;;;2.60;;
5173;SDS011;2606;50.934;6.934;2023-03-20T12:06:20;6.90;;;2.27;;
5173;SDS011;2606;50.934;6.934;2023-03-20T12:12:09;2.73;;;1.80;;
5173;SDS011;2606;50.934;6.934;2023-03-20T12:30:49;8.40;;;3.30;;
5173;SDS011;2606;50.934;6.934;2023-03-20T12:33:25;6.60;;;2.90;;
5173;SDS011;2606;50.934;6.934;2023-03-20T12:35:54;4.70;;;2.53;;
5173;SDS011;2606;50.934;6.934;2023-03-20T12:38:26;5.17;;;2.47;;
5173;SDS011;2606;50.934;6.934;2023-03-20T12:41:03;5.60;;;2.33;;
5173;SDS011;2606;50.934;6.934;2023-03-20T12:43:41;3.60;;;1.80;;
5173;SDS011;2606;50.934;6.934;2023-03-20T12:46:24;7.60;;;2.63;;
5173;SDS011;2606;50.934;6.934;2023-03-20T12:49:22;6.03;;;2.20;;
5173;SDS011;2606;50.934;6.934;2023-03-20T12:54:29;11.93;;;2.47;;
5173;SDS011;2606;50.934;6.934;2023-03-20T12:57:20;5.63;;;2.97;;
5173;SDS011;2606;50.934;6.934;2023-03-20T13:10:56;3.93;;;2.07;;
5173;SDS011;2606;50.934;6.934;2023-03-20T13:13:31;3.60;;;1.60;;
5173;SDS011;2606;50.934;6.934;2023-03-20T13:16:06;3.63;;;1.60;;
5173;SDS011;2606;50.934;6.934;2023-03-20T13:22:05;3.70;;;1.73;;
5173;SDS011;2606;50.934;6.934;2023-03-20T13:24:49;5.27;;;1.60;;
5173;SDS011;2606;50.934;6.934;2023-03-20T13:27:21;2.70;;;1.60;;
5173;SDS011;2606;50.934;6.934;2023-03-20T13:29:58;5.17;;;2.07;;
5173;SDS011;2606;50.934;6.934;2023-03-20T13:32:54;3.70;;;1.93;;
5173;SDS011;2606;50.934;6.934;2023-03-20T13:35:51;1.93;;;1.50;;
5173;SDS011;2606;50.934;6.934;2023-03-20T13:38:29;7.57;;;2.37;;
5173;SDS011;2606;50.934;6.934;2023-03-20T13:41:03;4.33;;;1.60;;
5173;SDS011;2606;50.934;6.934;2023-03-20T13:46:08;2.80;;;1.53;;
5173;SDS011;2606;50.934;6.934;2023-03-20T13:48:39;2.87;;;1.50;;
5173;SDS011;2606;50.934;6.934;2023-03-20T13:59:30;2.97;;;1.50;;
5173;SDS011;2606;50.934;6.934;2023-03-20T14:02:44;6.00;;;1.40;;
5173;SDS011;2606;50.934;6.934;2023-03-20T14:04:50;10.40;;;2.20;;
5173;SDS011;2606;50.934;6.934;2023-03-20T14:07:31;3.53;;;1.50;;
5173;SDS011;2606;50.934;6.934;2023-03-20T14:10:31;3.10;;;1.50;;
5173;SDS011;2606;50.934;6.934;2023-03-20T14:15:26;3.43;;;1.40;;
5173;SDS011;2606;50.934;6.934;2023-03-20T14:17:57;4.40;;;1.40;;
5173;SDS011;2606;50.934;6.934;2023-03-20T14:20:28;2.17;;;1.47;;
5173;SDS011;2606;50.934;6.934;2023-03-20T14:22:57;6.43;;;1.60;;
5173;SDS011;2606;50.934;6.934;2023-03-20T14:25:23;6.40;;;1.50;;
5173;SDS011;2606;50.934;6.934;2023-03-20T14:28:08;5.90;;;2.23;;
5173;SDS011;2606;50.934;6.934;2023-03-20T14:30:49;3.97;;;1.60;;
5173;SDS011;2606;50.934;6.934;2023-03-20T14:35:44;2.50;;;1.60;;
5173;SDS011;2606;50.934;6.934;2023-03-20T14:38:17;6.83;;;1.50;;
5173;SDS011;2606;50.934;6.934;2023-03-20T14:40:52;10.27;;;1.70;;
5173;SDS011;2606;50.934;6.934;2023-03-20T14:48:58;4.67;;;1.30;;
5173;SDS011;2606;50.934;6.934;2023-03-20T14:51:45;3.33;;;1.70;;
5173;SDS011;2606;50.934;6.934;2023-03-20T14:56:46;5.13;;;1.83;;
5173;SDS011;2606;50.934;6.934;2023-03-20T14:59:14;6.43;;;2.20;;
5173;SDS011;2606;50.934;6.934;2023-03-20T15:01:52;4.73;;;1.80;;
5173;SDS011;2606;50.934;6.934;2023-03-20T15:07:13;4.77;;;2.30;;
5173;SDS011;2606;50.934;6.934;2023-03-20T15:09:46;2.80;;;1.67;;
5173;SDS011;2606;50.934;6.934;2023-03-20T15:12:29;5.40;;;1.93;;
5173;SDS011;2606;50.934;6.934;2023-03-20T15:14:59;5.57;;;1.53;;
5173;SDS011;2606;50.934;6.934;2023-03-20T15:17:37;4.90;;;1.50;;
5173;SDS011;2606;50.934;6.934;2023-03-20T15:22:46;3.00;;;1.60;;
5173;SDS011;2606;50.934;6.934;2023-03-20T15:25:15;3.50;;;1.23;;
5173;SDS011;2606;50.934;6.934;2023-03-20T15:27:41;8.83;;;1.77;;
5173;SDS011;2606;50.934;6.934;2023-03-20T15:30:08;6.25;;;3.35;;
5173;SDS011;2606;50.934;6.934;2023-03-20T15:32:37;5.23;;;2.70;;
5173;SDS011;2606;50.934;6.934;2023-03-20T15:35:06;7.17;;;2.87;;
5173;SDS011;2606;50.934;6.934;2023-03-20T15:37:32;8.63;;;1.93;;
5173;SDS011;2606;50.934;6.934;2023-03-20T15:39:58;7.63;;;1.87;;
5173;SDS011;2606;50.934;6.934;2023-03-20T15:42:36;8.27;;;2.50;;
5173;SDS011;2606;50.934;6.934;2023-03-20T15:45:12;7.50;;;2.57;;
5173;SDS011;2606;50.934;6.934;2023-03-20T15:47:46;5.43;;;1.87;;
5173;SDS011;2606;50.934;6.934;2023-03-20T15:50:12;4.90;;;2.37;;
5173;SDS011;2606;50.934;6.934;2023-03-20T15:52:41;5.00;;;1.60;;
5173;SDS011;2606;50.934;6.934;2023-03-20T15:55:17;4.57;;;1.90;;
5173;SDS011;2606;50.934;6.934;2023-03-20T15:57:44;5.27;;;1.80;;
5173;SDS011;2606;50.934;6.934;2023-03-20T16:02:43;8.40;;;2.30;;
5173;SDS011;2606;50.934;6.934;2023-03-20T16:05:14;7.50;;;2.83;;
5173;SDS011;2606;50.934;6.934;2023-03-20T16:07:41;6.47;;;2.03;;
5173;SDS011;2606;50.934;6.934;2023-03-20T16:10:17;5.00;;;2.00;;
5173;SDS011;2606;50.934;6.934;2023-03-20T16:12:46;8.23;;;2.43;;
5173;SDS011;2606;50.934;6.934;2023-03-20T16:15:18;9.80;;;2.50;;
5173;SDS011;2606;50.934;6.934;2023-03-20T16:17:44;3.80;;;1.70;;
5173;SDS011;2606;50.934;6.934;2023-03-20T16:20:15;7.97;;;2.10;;
5173;SDS011;2606;50.934;6.934;2023-03-20T16:22:41;5.00;;;2.20;;
5173;SDS011;2606;50.934;6.934;2023-03-20T16:25:08;9.17;;;3.57;;
5173;SDS011;2606;50.934;6.934;2023-03-20T16:27:38;5.00;;;2.50;;
5173;SDS011;2606;50.934;6.934;2023-03-20T16:30:06;7.47;;;2.30;;
5173;SDS011;2606;50.934;6.934;2023-03-20T16:32:38;4.57;;;1.50;;
5173;SDS011;2606;50.934;6.934;2023-03-20T16:35:28;7.00;;;2.20;;
5173;SDS011;2606;50.934;6.934;2023-03-20T16:37:59;16.27;;;2.00;;
5173;SDS011;2606;50.934;6.934;2023-03-20T16:42:56;9.13;;;3.30;;
5173;SDS011;2606;50.934;6.934;2023-03-20T16:45:30;4.97;;;2.67;;
5173;SDS011;2606;50.934;6.934;2023-03-20T16:48:16;6.73;;;2.43;;
5173;SDS011;2606;50.934;6.934;2023-03-20T16:50:48;5.07;;;1.70;;
5173;SDS011;2606;50.934;6.934;2023-03-20T16:53:21;4.83;;;2.50;;
5173;SDS011;2606;50.934;6.934;2023-03-20T16:55:49;3.80;;;1.37;;
5173;SDS011;2606;50.934;6.934;2023-03-20T16:58:20;19.13;;;11.20;;
5173;SDS011;2606;50.934;6.934;2023-03-20T17:01:06;7.57;;;2.30;;
5173;SDS011;2606;50.934;6.934;2023-03-20T17:11:27;5.20;;;2.80;;
5173;SDS011;2606;50.934;6.934;2023-03-20T17:13:56;8.23;;;1.90;;
5173;SDS011;2606;50.934;6.934;2023-03-20T17:16:22;9.40;;;2.30;;
5173;SDS011;2606;50.934;6.934;2023-03-20T17:21:25;6.67;;;2.40;;
5173;SDS011;2606;50.934;6.934;2023-03-20T17:23:52;5.57;;;2.23;;
5173;SDS011;2606;50.934;6.934;2023-03-20T17:26:17;5.38;;;2.20;;
5173;SDS011;2606;50.934;6.934;2023-03-20T17:28:43;8.03;;;2.60;;
5173;SDS011;2606;50.934;6.934;2023-03-20T17:31:12;9.90;;;2.47;;
5173;SDS011;2606;50.934;6.934;2023-03-20T17:33:38;7.00;;;2.47;;
5173;SDS011;2606;50.934;6.934;2023-03-20T17:36:07;7.80;;;2.60;;
5173;SDS011;2606;50.934;6.934;2023-03-20T17:38:54;4.80;;;2.90;;
5173;SDS011;2606;50.934;6.934;2023-03-20T17:41:20;12.13;;;2.70;;
5173;SDS011;2606;50.934;6.934;2023-03-20T17:43:46;6.83;;;2.17;;
5173;SDS011;2606;50.934;6.934;2023-03-20T17:46:33;5.83;;;2.00;;
5173;SDS011;2606;50.934;6.934;2023-03-20T17:49:10;7.97;;;1.80;;
5173;SDS011;2606;50.934;6.934;2023-03-20T17:51:40;3.10;;;1.20;;
5173;SDS011;2606;50.934;6.934;2023-03-20T17:54:12;7.93;;;1.50;;
5173;SDS011;2606;50.934;6.934;2023-03-20T17:56:38;2.27;;;1.70;;
5173;SDS011;2606;50.934;6.934;2023-03-20T17:59:08;6.63;;;2.70;;
5173;SDS011;2606;50.934;6.934;2023-03-20T18:01:37;2.30;;;1.63;;
5173;SDS011;2606;50.934;6.934;2023-03-20T18:04:05;7.77;;;1.73;;
5173;SDS011;2606;50.934;6.934;2023-03-20T18:06:32;4.00;;;1.70;;
5173;SDS011;2606;50.934;6.934;2023-03-20T18:09:03;9.97;;;1.60;;
5173;SDS011;2606;50.934;6.934;2023-03-20T18:11:29;6.40;;;2.00;;